createdAt,value
2022-11-19T00:00:05.211Z,100538.81
2022-11-19T00:02:33.827Z,100538.97
2022-11-19T00:05:00.709Z,100546.22
2022-11-19T00:07:27.646Z,100547.03
2022-11-19T00:09:54.640Z,100555.13
2022-11-19T00:12:39.888Z,100553.31
2022-11-19T00:15:06.955Z,100558.41
2022-11-19T00:17:33.703Z,100562.69
2022-11-19T00:20:01.899Z,100557.28
2022-11-19T00:22:30.071Z,100555.47
2022-11-19T00:24:57.138Z,100558.41
2022-11-19T00:27:23.924Z,100566.31
2022-11-19T00:29:50.880Z,100561.03
2022-11-19T00:32:17.746Z,100567.31
2022-11-19T00:34:44.854Z,100566.31
2022-11-19T00:37:11.857Z,100575.22
2022-11-19T00:39:38.764Z,100581.31
2022-11-19T00:42:08.136Z,100579.84
2022-11-19T00:44:37.420Z,100573.75
2022-11-19T00:47:04.530Z,100569.81
2022-11-19T00:49:39.014Z,100576.22
2022-11-19T00:58:54.649Z,100573.94
2022-11-19T01:03:28.966Z,100578.38
2022-11-19T01:08:19.543Z,100581.19
2022-11-19T01:10:47.849Z,100587.28
2022-11-19T01:13:34.653Z,100571.47
2022-11-19T01:16:09.661Z,100580.03
2022-11-19T01:19:23.178Z,100582.66
2022-11-19T01:21:52.192Z,100583.66
2022-11-19T01:24:19.142Z,100576.72
2022-11-19T01:26:46.327Z,100584.63
2022-11-19T01:29:22.375Z,100585.47
2022-11-19T01:31:49.313Z,100582.81
2022-11-19T01:34:16.329Z,100587.13
2022-11-19T01:36:51.256Z,100579.22
2022-11-19T01:39:50.694Z,100579.84
2022-11-19T01:42:59.638Z,100580.66
2022-11-19T01:48:57.621Z,100597.97
2022-11-19T01:51:26.502Z,100587.28
2022-11-19T01:53:55.677Z,100589.91
2022-11-19T01:56:23.007Z,100597.97
2022-11-19T01:58:53.102Z,100599.78
2022-11-19T02:01:28.105Z,100610.84
2022-11-19T02:04:04.874Z,100614.81
2022-11-19T02:06:39.479Z,100613.31
2022-11-19T02:09:16.367Z,100613.63
2022-11-19T02:12:07.525Z,100623.34
2022-11-19T02:14:58.153Z,100626.13
2022-11-19T02:17:46.886Z,100624.66
2022-11-19T02:21:05.906Z,100628.28
2022-11-19T02:24:06.283Z,100627.59
2022-11-19T02:26:58.061Z,100619.06
2022-11-19T02:29:41.904Z,100618.38
2022-11-19T02:32:31.314Z,100628.25
2022-11-19T02:38:06.969Z,100629.91
2022-11-19T02:41:00.231Z,100629.25
2022-11-19T02:44:07.080Z,100644.56
2022-11-19T02:46:34.271Z,100642.75
2022-11-19T02:49:03.594Z,100632.38
2022-11-19T02:51:33.852Z,100636.19
2022-11-19T02:54:00.599Z,100637.97
2022-11-19T02:57:06.521Z,100638.28
2022-11-19T03:00:01.313Z,100638.28
2022-11-19T03:06:35.880Z,100638.47
2022-11-19T03:09:02.861Z,100642.91
2022-11-19T03:15:13.541Z,100642.91
2022-11-19T03:17:58.805Z,100634.00
2022-11-19T03:20:30.515Z,100645.22
2022-11-19T03:23:04.151Z,100649.16
2022-11-19T03:25:35.423Z,100636.81
2022-11-19T03:28:07.114Z,100637.66
2022-11-19T03:30:36.455Z,100633.19
2022-11-19T03:36:30.761Z,100641.25
2022-11-19T03:39:00.811Z,100648.19
2022-11-19T03:41:29.094Z,100644.72
2022-11-19T03:44:02.612Z,100645.53
2022-11-19T03:46:31.390Z,100649.34
2022-11-19T03:48:59.518Z,100646.88
2022-11-19T03:51:46.638Z,100650.31
2022-11-19T03:54:13.726Z,100643.91
2022-11-19T03:56:41.615Z,100648.19
2022-11-19T03:59:12.426Z,100650.81
2022-11-19T04:01:40.445Z,100653.44
2022-11-19T04:04:26.139Z,100651.66
2022-11-19T04:06:52.840Z,100638.63
2022-11-19T04:09:25.109Z,100631.41
2022-11-19T04:14:17.416Z,100635.69
2022-11-19T04:16:44.473Z,100640.78
2022-11-19T04:19:12.700Z,100637.16
2022-11-19T04:21:39.412Z,100640.63
2022-11-19T04:24:09.173Z,100651.81
2022-11-19T04:26:39.017Z,100657.09
2022-11-19T04:29:06.526Z,100653.78
2022-11-19T04:31:33.658Z,100663.34
2022-11-19T04:34:00.548Z,100656.09
2022-11-19T04:36:32.527Z,100657.75
2022-11-19T04:38:59.353Z,100670.75
2022-11-19T04:41:26.287Z,100668.13
2022-11-19T04:44:00.714Z,100674.38
2022-11-19T04:46:27.679Z,100667.44
2022-11-19T04:48:56.387Z,100663.34
2022-11-19T04:51:23.558Z,100668.13
2022-11-19T04:53:50.543Z,100671.75
2022-11-19T04:56:17.288Z,100670.09
2022-11-19T04:58:44.030Z,100665.66
2022-11-19T05:01:11.189Z,100667.44
2022-11-19T05:03:38.319Z,100676.19
2022-11-19T05:06:05.359Z,100672.38
2022-11-19T05:08:32.269Z,100679.47
2022-11-19T05:11:01.695Z,100683.94
2022-11-19T05:13:28.451Z,100680.47
2022-11-19T05:15:55.352Z,100684.09
2022-11-19T05:18:25.294Z,100678.00
2022-11-19T05:20:52.483Z,100680.63
2022-11-19T05:23:21.919Z,100687.53
2022-11-19T05:25:48.658Z,100694.63
2022-11-19T05:28:15.562Z,100699.75
2022-11-19T05:30:42.271Z,100695.94
2022-11-19T05:33:09.105Z,100697.75
2022-11-19T05:35:35.984Z,100699.41
2022-11-19T05:38:02.982Z,100710.09
2022-11-19T05:40:30.189Z,100704.19
2022-11-19T05:42:57.130Z,100698.09
2022-11-19T05:45:25.343Z,100693.66
2022-11-19T05:47:56.049Z,100698.72
2022-11-19T05:50:22.937Z,100706.63
2022-11-19T05:52:49.768Z,100707.31
2022-11-19T05:55:17.147Z,100717.84
2022-11-19T05:57:44.106Z,100709.28
2022-11-19T06:00:11.432Z,100719.66
2022-11-19T06:02:38.285Z,100714.53
2022-11-19T06:05:05.507Z,100719.81
2022-11-19T06:07:32.608Z,100726.56
2022-11-19T06:09:59.536Z,100725.75
2022-11-19T06:12:35.120Z,100719.66
2022-11-19T06:15:05.800Z,100729.38
2022-11-19T06:17:32.992Z,100728.53
2022-11-19T06:20:00.623Z,100728.53
2022-11-19T06:22:34.485Z,100731.84
2022-11-19T06:25:01.391Z,100732.00
2022-11-19T06:27:28.457Z,100732.00
2022-11-19T06:29:57.758Z,100728.38
2022-11-19T06:32:32.136Z,100734.47
2022-11-19T06:34:59.158Z,100736.28
2022-11-19T06:37:26.180Z,100737.13
2022-11-19T06:39:52.959Z,100743.22
2022-11-19T06:42:38.394Z,100738.94
2022-11-19T06:45:08.611Z,100753.91
2022-11-19T06:47:35.792Z,100740.72
2022-11-19T06:53:21.137Z,100758.84
2022-11-19T06:55:48.105Z,100746.00
2022-11-19T06:58:17.157Z,100751.41
2022-11-19T07:00:44.325Z,100752.41
2022-11-19T07:03:11.341Z,100750.44
2022-11-19T07:05:41.315Z,100750.25
2022-11-19T07:08:08.470Z,100749.47
2022-11-19T07:10:38.584Z,100757.03
2022-11-19T07:13:08.492Z,100761.31
2022-11-19T07:15:35.517Z,100763.94
2022-11-19T07:18:02.322Z,100774.50
2022-11-19T07:20:29.195Z,100769.88
2022-11-19T07:22:59.462Z,100764.59
2022-11-19T07:25:26.699Z,100769.56
2022-11-19T07:27:56.260Z,100771.38
2022-11-19T07:30:26.180Z,100774.16
2022-11-19T07:32:54.056Z,100768.75
2022-11-19T07:35:21.040Z,100777.28
2022-11-19T07:37:50.398Z,100774.34
2022-11-19T07:40:17.257Z,100784.75
2022-11-19T07:42:50.039Z,100776.66
2022-11-19T07:45:20.052Z,100782.44
2022-11-19T07:47:47.204Z,100779.63
2022-11-19T07:50:14.811Z,100783.78
2022-11-19T07:52:41.586Z,100790.84
2022-11-19T07:55:08.645Z,100792.50
2022-11-19T07:57:35.604Z,100785.44
2022-11-19T08:00:03.318Z,100785.25
2022-11-19T08:02:32.492Z,100792.16
2022-11-19T08:04:59.486Z,100790.50
2022-11-19T08:07:26.394Z,100793.00
2022-11-19T08:09:53.195Z,100798.97
2022-11-19T08:12:25.354Z,100791.06
2022-11-19T08:14:52.069Z,100791.34
2022-11-19T08:17:41.788Z,100792.31
2022-11-19T08:20:09.170Z,100797.94
2022-11-19T08:22:37.442Z,100804.34
2022-11-19T08:25:04.532Z,100797.59
2022-11-19T08:27:31.477Z,100802.03
2022-11-19T08:29:58.420Z,100806.31
2022-11-19T08:32:32.057Z,100805.50
2022-11-19T08:34:58.966Z,100814.22
2022-11-19T08:37:25.742Z,100820.63
2022-11-19T08:39:52.529Z,100817.00
2022-11-19T08:42:38.137Z,100813.53
2022-11-19T08:45:08.101Z,100809.09
2022-11-19T08:47:35.072Z,100813.53
2022-11-19T08:50:01.817Z,100812.56
2022-11-19T08:52:35.461Z,100810.63
2022-11-19T08:55:02.375Z,100811.44
2022-11-19T08:57:29.420Z,100820.00
2022-11-19T08:59:58.235Z,100818.19
2022-11-19T09:02:38.715Z,100824.97
2022-11-19T09:05:08.681Z,100824.47
2022-11-19T09:07:49.419Z,100825.97
2022-11-19T09:21:00.610Z,100828.47
2022-11-19T09:26:18.372Z,100825.69
2022-11-19T09:28:48.533Z,100834.41
2022-11-19T09:34:10.801Z,100835.22
2022-11-19T09:48:21.478Z,100851.56
2022-11-19T09:53:55.780Z,100849.91
2022-11-19T09:56:26.310Z,100854.22
2022-11-19T09:58:56.896Z,100857.66
2022-11-19T10:01:24.531Z,100851.41
2022-11-19T10:09:48.350Z,100858.84
2022-11-19T10:21:36.811Z,100863.97
2022-11-19T10:24:28.406Z,100854.75
2022-11-19T10:27:26.924Z,100857.03
2022-11-19T10:41:24.200Z,100866.31
2022-11-19T10:43:55.142Z,100860.06
2022-11-19T10:57:16.233Z,100858.91
2022-11-19T11:02:38.363Z,100850.00
2022-11-19T11:10:42.942Z,100838.13
2022-11-19T11:13:35.164Z,100847.38
2022-11-19T11:16:06.128Z,100847.41
2022-11-19T11:18:33.156Z,100843.59
2022-11-19T11:21:00.582Z,100849.34
2022-11-19T11:23:31.432Z,100841.44
2022-11-19T11:26:06.513Z,100842.09
2022-11-19T11:28:33.780Z,100846.06
2022-11-19T11:31:10.069Z,100842.09
2022-11-19T11:33:41.386Z,100833.34
2022-11-19T11:36:23.140Z,100842.75
2022-11-19T11:42:32.262Z,100831.53
2022-11-19T11:45:00.859Z,100824.44
2022-11-19T11:47:32.281Z,100823.94
2022-11-19T11:50:02.183Z,100831.00
2022-11-19T11:52:40.404Z,100830.84
2022-11-19T11:55:14.800Z,100828.38
2022-11-19T11:57:52.004Z,100832.03
2022-11-19T12:00:36.809Z,100828.22
2022-11-19T12:03:07.123Z,100837.13
2022-11-19T12:09:07.168Z,100833.31
2022-11-19T12:11:55.190Z,100834.00
2022-11-19T12:14:34.951Z,100830.19
2022-11-19T12:17:04.926Z,100835.28
2022-11-19T12:19:37.144Z,100833.00
2022-11-19T12:22:04.077Z,100831.50
2022-11-19T12:24:30.900Z,100833.31
2022-11-19T12:27:08.184Z,100829.69
2022-11-19T12:29:55.316Z,100831.03
2022-11-19T12:32:46.953Z,100835.97
2022-11-19T12:35:19.996Z,100836.31
2022-11-19T12:37:47.138Z,100837.28
2022-11-19T12:40:26.328Z,100835.81
2022-11-19T12:43:04.663Z,100840.09
2022-11-19T12:45:37.945Z,100840.75
2022-11-19T12:48:17.293Z,100847.84
2022-11-19T12:50:53.748Z,100842.41
2022-11-19T12:53:39.505Z,100842.22
2022-11-19T12:56:31.000Z,100846.53
2022-11-19T12:59:13.123Z,100848.84
2022-11-19T13:01:42.893Z,100850.31
2022-11-19T13:04:19.785Z,100845.03
2022-11-19T13:07:10.375Z,100851.13
2022-11-19T13:09:48.940Z,100854.13
2022-11-19T13:12:30.848Z,100849.69
2022-11-19T13:15:01.237Z,100854.28
2022-11-19T13:17:28.141Z,100854.44
2022-11-19T13:20:04.274Z,100849.16
2022-11-19T13:23:21.523Z,100855.59
2022-11-19T13:25:56.044Z,100857.75
2022-11-19T13:28:37.828Z,100853.47
2022-11-19T13:31:08.032Z,100858.75
2022-11-19T13:33:47.863Z,100861.53
2022-11-19T13:36:36.845Z,100863.69
2022-11-19T13:39:18.202Z,100863.22
2022-11-19T13:42:09.558Z,100866.16
2022-11-19T13:44:42.012Z,100858.44
2022-11-19T13:47:27.105Z,100858.09
2022-11-19T13:50:00.383Z,100863.03
2022-11-19T13:52:47.281Z,100860.25
2022-11-19T13:55:31.491Z,100858.25
2022-11-19T13:58:07.178Z,100854.78
2022-11-19T14:00:34.148Z,100850.19
2022-11-19T14:03:10.723Z,100851.19
2022-11-19T14:06:03.948Z,100843.91
2022-11-19T14:08:49.601Z,100832.19
2022-11-19T14:11:16.398Z,100836.28
2022-11-19T14:13:52.482Z,100832.34
2022-11-19T14:16:53.123Z,100829.06
2022-11-19T14:19:38.557Z,100836.50
2022-11-19T14:22:42.898Z,100822.47
2022-11-19T14:25:28.669Z,100819.00
2022-11-19T14:27:55.418Z,100820.66
2022-11-19T14:30:42.160Z,100820.47
2022-11-19T14:33:27.719Z,100806.78
2022-11-19T14:35:54.677Z,100801.81
2022-11-19T14:38:36.781Z,100796.03
2022-11-19T14:41:15.806Z,100791.91
2022-11-19T14:44:08.583Z,100786.94
2022-11-19T14:46:40.819Z,100779.31
2022-11-19T14:49:24.049Z,100781.13
2022-11-19T14:51:52.843Z,100790.09
2022-11-19T15:05:41.994Z,100793.72
2022-11-19T15:11:13.729Z,100796.69
2022-11-19T15:25:40.192Z,100811.75
2022-11-19T15:31:05.687Z,100817.16
2022-11-19T15:33:45.742Z,100816.53
2022-11-19T15:36:37.466Z,100810.09
2022-11-19T15:39:10.506Z,100819.16
2022-11-19T15:41:39.580Z,100818.16
2022-11-19T15:44:10.369Z,100820.16
2022-11-19T15:46:53.926Z,100827.06
2022-11-19T15:49:25.563Z,100827.91
2022-11-19T15:51:58.986Z,100834.00
2022-11-19T15:54:30.375Z,100830.38
2022-11-19T15:57:06.111Z,100832.19
2022-11-19T15:59:35.113Z,100836.66
2022-11-19T16:02:05.920Z,100827.91
2022-11-19T16:04:37.933Z,100837.47
2022-11-19T16:07:06.711Z,100835.81
2022-11-19T16:09:37.136Z,100843.59
2022-11-19T16:12:22.695Z,100851.34
2022-11-19T16:15:12.770Z,100838.97
2022-11-19T16:17:53.250Z,100836.97
2022-11-19T16:20:22.404Z,100836.16
2022-11-19T16:22:58.359Z,100835.16
2022-11-19T16:25:30.042Z,100832.53
2022-11-19T16:28:00.127Z,100831.53
2022-11-19T16:30:28.342Z,100836.16
2022-11-19T16:32:59.409Z,100824.94
2022-11-19T16:35:28.289Z,100826.41
2022-11-19T16:37:56.567Z,100832.38
2022-11-19T16:40:24.187Z,100829.56
2022-11-19T16:42:55.605Z,100824.94
2022-11-19T16:45:24.631Z,100821.97
2022-11-19T16:47:53.118Z,100830.69
2022-11-19T16:50:28.066Z,100828.06
2022-11-19T16:52:56.195Z,100830.69
2022-11-19T16:55:23.206Z,100833.34
2022-11-19T16:57:52.179Z,100833.34
2022-11-19T17:00:32.191Z,100832.69
2022-11-19T17:02:59.004Z,100828.06
2022-11-19T17:05:28.996Z,100828.41
2022-11-19T17:08:06.526Z,100827.25
2022-11-19T17:11:20.439Z,100829.72
2022-11-19T17:13:47.275Z,100827.59
2022-11-19T17:16:18.696Z,100836.50
2022-11-19T17:18:46.846Z,100834.66
2022-11-19T17:21:46.241Z,100837.31
2022-11-19T17:24:14.251Z,100837.63
2022-11-19T17:26:46.577Z,100840.13
2022-11-19T17:29:19.584Z,100845.22
2022-11-19T17:31:48.163Z,100844.22
2022-11-19T17:34:37.734Z,100853.97
2022-11-19T17:37:08.329Z,100849.50
2022-11-19T17:39:35.226Z,100845.88
2022-11-19T17:42:23.358Z,100852.81
2022-11-19T17:44:55.631Z,100852.63
2022-11-19T17:47:24.387Z,100843.72
2022-11-19T17:49:51.718Z,100855.78
2022-11-19T17:52:29.239Z,100843.41
2022-11-19T17:55:02.848Z,100850.50
2022-11-19T17:57:29.824Z,100853.31
2022-11-19T17:59:56.863Z,100853.16
2022-11-19T18:02:35.613Z,100848.84
2022-11-19T18:05:09.247Z,100847.03
2022-11-19T18:07:36.182Z,100851.66
2022-11-19T18:10:04.442Z,100847.56
2022-11-19T18:12:35.428Z,100844.25
2022-11-19T18:15:05.041Z,100850.50
2022-11-19T18:17:31.848Z,100853.13
2022-11-19T18:19:58.772Z,100845.06
2022-11-19T18:22:28.765Z,100854.63
2022-11-19T18:24:57.268Z,100858.09
2022-11-19T18:27:24.095Z,100858.41
2022-11-19T18:29:53.570Z,100858.59
2022-11-19T18:32:20.676Z,100858.41
2022-11-19T18:34:47.684Z,100853.13
2022-11-19T18:37:14.654Z,100857.59
2022-11-19T18:39:44.453Z,100859.44
2022-11-19T18:42:12.338Z,100854.47
2022-11-19T18:44:39.232Z,100852.50
2022-11-19T18:47:10.521Z,100849.69
2022-11-19T18:49:37.975Z,100845.88
2022-11-19T18:52:05.825Z,100853.81
2022-11-19T18:54:33.047Z,100858.94
2022-11-19T18:56:59.843Z,100855.63
2022-11-19T18:59:26.661Z,100858.25
2022-11-19T19:01:56.111Z,100855.47
2022-11-19T19:04:26.895Z,100857.13
2022-11-19T19:06:54.065Z,100862.56
2022-11-19T19:09:21.818Z,100853.00
2022-11-19T19:12:12.655Z,100852.13
2022-11-19T19:14:40.274Z,100857.75
2022-11-19T19:17:07.247Z,100851.50
2022-11-19T19:19:34.188Z,100853.97
2022-11-19T19:22:01.298Z,100854.78
2022-11-19T19:24:29.670Z,100851.81
2022-11-19T19:26:58.430Z,100851.31
2022-11-19T19:29:25.602Z,100845.84
2022-11-19T19:31:53.126Z,100846.88
2022-11-19T19:34:20.274Z,100845.22
2022-11-19T19:36:52.751Z,100852.78
2022-11-19T19:39:20.459Z,100841.59
2022-11-19T19:41:47.579Z,100849.81
2022-11-19T19:44:14.413Z,100849.47
2022-11-19T19:46:41.264Z,100842.19
2022-11-19T19:52:33.553Z,100839.56
2022-11-19T19:55:00.423Z,100847.81
2022-11-19T19:57:30.779Z,100850.44
2022-11-19T20:00:00.097Z,100853.06
2022-11-19T20:02:40.980Z,100854.88
2022-11-19T20:05:08.311Z,100852.41
2022-11-19T20:07:35.245Z,100852.06
2022-11-19T20:10:02.096Z,100850.41
2022-11-19T20:12:54.025Z,100856.66
2022-11-19T20:15:20.830Z,100848.09
2022-11-19T20:17:53.065Z,100848.25
2022-11-19T20:20:20.070Z,100860.59
2022-11-19T20:22:46.915Z,100854.97
2022-11-19T20:25:13.655Z,100857.63
2022-11-19T20:27:40.586Z,100847.91
2022-11-19T20:30:10.869Z,100855.16
2022-11-19T20:32:37.959Z,100856.25
2022-11-19T20:38:25.504Z,100858.53
2022-11-19T20:40:55.722Z,100856.88
2022-11-19T20:43:45.857Z,100855.22
2022-11-19T20:46:15.430Z,100855.41
2022-11-19T20:48:42.236Z,100846.00
2022-11-19T20:54:27.891Z,100838.06
2022-11-19T20:56:55.401Z,100844.66
2022-11-19T20:59:32.741Z,100848.88
2022-11-19T21:01:59.794Z,100845.56
2022-11-19T21:07:44.842Z,100838.13
2022-11-19T21:10:11.995Z,100841.88
2022-11-19T21:12:58.713Z,100847.00
2022-11-19T21:15:25.556Z,100852.41
2022-11-19T21:17:52.388Z,100844.50
2022-11-19T21:20:19.154Z,100847.00
2022-11-19T21:22:49.785Z,100840.25
2022-11-19T21:25:17.814Z,100844.69
2022-11-19T21:27:44.750Z,100841.00
2022-11-19T21:30:12.921Z,100832.13
2022-11-19T21:32:56.665Z,100838.69
2022-11-19T21:35:23.579Z,100828.78
2022-11-19T21:37:50.339Z,100837.16
2022-11-19T21:43:39.366Z,100841.69
2022-11-19T21:46:09.170Z,100844.34
2022-11-19T21:48:37.772Z,100835.75
2022-11-19T21:51:12.165Z,100836.59
2022-11-19T21:53:39.372Z,100831.31
2022-11-19T21:56:06.676Z,100839.34
2022-11-19T21:58:35.927Z,100834.28
2022-11-19T22:01:04.467Z,100839.69
2022-11-19T22:03:35.490Z,100837.03
2022-11-19T22:06:04.223Z,100832.75
2022-11-19T22:08:31.636Z,100835.38
2022-11-19T22:10:58.864Z,100826.97
2022-11-19T22:13:27.988Z,100825.47
2022-11-19T22:16:01.631Z,100825.94
2022-11-19T22:18:28.605Z,100823.41
2022-11-19T22:21:02.128Z,100822.75
2022-11-19T22:23:36.518Z,100815.66
2022-11-19T22:26:09.999Z,100812.22
2022-11-19T22:28:37.049Z,100811.06
2022-11-19T22:34:22.180Z,100817.13
2022-11-19T22:36:49.015Z,100805.78
2022-11-19T22:39:15.960Z,100808.53
2022-11-19T22:41:42.738Z,100803.97
2022-11-19T22:44:09.770Z,100796.72
2022-11-19T22:46:36.710Z,100793.28
2022-11-19T22:49:03.595Z,100796.06
2022-11-19T22:51:30.403Z,100789.16
2022-11-19T22:53:57.253Z,100792.91
2022-11-19T22:56:25.206Z,100785.34
2022-11-19T23:05:36.889Z,100780.16
2022-11-19T23:08:08.504Z,100788.88
2022-11-19T23:10:35.597Z,100784.75
2022-11-19T23:13:21.740Z,100780.16
2022-11-19T23:16:05.594Z,100784.97
2022-11-19T23:18:33.836Z,100778.72
2022-11-19T23:21:02.597Z,100776.75
2022-11-19T23:23:29.908Z,100776.59
2022-11-19T23:26:00.948Z,100771.34
2022-11-19T23:28:32.341Z,100774.66
2022-11-19T23:31:10.402Z,100769.22
2022-11-19T23:33:39.777Z,100761.50
2022-11-19T23:36:08.729Z,100757.22
2022-11-19T23:38:37.042Z,100758.53
2022-11-19T23:41:06.901Z,100759.13
2022-11-19T23:43:37.733Z,100752.06
2022-11-19T23:46:12.723Z,100751.38
2022-11-19T23:48:41.096Z,100749.56
2022-11-19T23:54:26.985Z,100750.56
2022-11-19T23:56:54.355Z,100746.44
2022-11-19T23:59:25.433Z,100748.38
